sensor_id;sensor_type;location;lat;lon;timestamp;pressure;altitude;pressure_sealevel;temperature;humidity
24558;BME280;12726;49.148;8.582;2023-02-15T00:01:05;101905.25;;;0.97;100.00
24558;BME280;12726;49.148;8.582;2023-02-15T00:03:50;101898.84;;;1.00;100.00
24558;BME280;12726;49.148;8.582;2023-02-15T00:06:36;101902.50;;;0.99;100.00
24558;BME280;12726;49.148;8.582;2023-02-15T00:09:21;101898.84;;;1.00;100.00
24558;BME280;12726;49.148;8.582;2023-02-15T00:12:08;101901.28;;;1.03;100.00
24558;BME280;12726;49.148;8.582;2023-02-15T00:14:54;101889.72;;;1.04;100.00
24558;BME280;12726;49.148;8.582;2023-02-15T00:17:39;101894.91;;;1.05;100.00
24558;BME280;12726;49.148;8.582;2023-02-15T00:20:25;101887.91;;;1.04;100.00
24558;BME280;12726;49.148;8.582;2023-02-15T00:23:10;101886.72;;;1.08;100.00
24558;BME280;12726;49.148;8.582;2023-02-15T00:26:03;101885.16;;;1.06;100.00
24558;BME280;12726;49.148;8.582;2023-02-15T00:28:50;101886.31;;;1.02;100.00
24558;BME280;12726;49.148;8.582;2023-02-15T00:31:36;101881.03;;;1.02;100.00
24558;BME280;12726;49.148;8.582;2023-02-15T00:34:22;101880.19;;;1.01;100.00
24558;BME280;12726;49.148;8.582;2023-02-15T00:37:08;101868.63;;;1.02;100.00
24558;BME280;12726;49.148;8.582;2023-02-15T00:39:53;101870.41;;;1.02;100.00
24558;BME280;12726;49.148;8.582;2023-02-15T00:42:38;101875.84;;;1.00;100.00
24558;BME280;12726;49.148;8.582;2023-02-15T00:45:25;101871.38;;;1.01;100.00
24558;BME280;12726;49.148;8.582;2023-02-15T00:48:10;101867.88;;;1.00;100.00
24558;BME280;12726;49.148;8.582;2023-02-15T00:50:58;101874.75;;;1.03;100.00
24558;BME280;12726;49.148;8.582;2023-02-15T00:53:44;101872.97;;;1.03;100.00
24558;BME280;12726;49.148;8.582;2023-02-15T00:56:29;101861.78;;;1.11;100.00
24558;BME280;12726;49.148;8.582;2023-02-15T00:59:14;101863.94;;;1.06;100.00
24558;BME280;12726;49.148;8.582;2023-02-15T01:02:01;101867.88;;;1.00;100.00
24558;BME280;12726;49.148;8.582;2023-02-15T01:04:46;101865.38;;;0.99;100.00
24558;BME280;12726;49.148;8.582;2023-02-15T01:07:32;101863.56;;;0.99;100.00
24558;BME280;12726;49.148;8.582;2023-02-15T01:10:17;101866.69;;;1.04;100.00
24558;BME280;12726;49.148;8.582;2023-02-15T01:13:03;101863.69;;;1.09;100.00
24558;BME280;12726;49.148;8.582;2023-02-15T01:15:52;101867.56;;;1.05;100.00
24558;BME280;12726;49.148;8.582;2023-02-15T01:18:39;101867.78;;;1.02;100.00
24558;BME280;12726;49.148;8.582;2023-02-15T01:21:25;101865.97;;;1.02;100.00
24558;BME280;12726;49.148;8.582;2023-02-15T01:24:12;101874.88;;;1.01;100.00
24558;BME280;12726;49.148;8.582;2023-02-15T01:26:57;101876.69;;;1.01;100.00
24558;BME280;12726;49.148;8.582;2023-02-15T01:29:43;101875.63;;;1.03;100.00
24558;BME280;12726;49.148;8.582;2023-02-15T01:32:29;101880.28;;;1.00;100.00
24558;BME280;12726;49.148;8.582;2023-02-15T01:35:15;101878.84;;;0.96;100.00
24558;BME280;12726;49.148;8.582;2023-02-15T01:38:01;101871.09;;;0.93;100.00
24558;BME280;12726;49.148;8.582;2023-02-15T01:40:46;101867.63;;;0.92;100.00
24558;BME280;12726;49.148;8.582;2023-02-15T01:43:39;101874.50;;;0.95;100.00
24558;BME280;12726;49.148;8.582;2023-02-15T01:46:28;101861.00;;;0.98;100.00
24558;BME280;12726;49.148;8.582;2023-02-15T01:49:17;101866.44;;;0.96;100.00
24558;BME280;12726;49.148;8.582;2023-02-15T01:52:07;101865.97;;;1.02;100.00
24558;BME280;12726;49.148;8.582;2023-02-15T01:54:53;101861.72;;;1.00;100.00
24558;BME280;12726;49.148;8.582;2023-02-15T01:57:39;101860.75;;;0.90;100.00
24558;BME280;12726;49.148;8.582;2023-02-15T02:00:24;101856.28;;;0.90;100.00
24558;BME280;12726;49.148;8.582;2023-02-15T02:03:10;101862.25;;;0.81;100.00
24558;BME280;12726;49.148;8.582;2023-02-15T02:05:55;101848.06;;;0.82;100.00
24558;BME280;12726;49.148;8.582;2023-02-15T02:08:42;101852.00;;;0.76;100.00
24558;BME280;12726;49.148;8.582;2023-02-15T02:11:28;101849.81;;;0.70;100.00
24558;BME280;12726;49.148;8.582;2023-02-15T02:14:13;101843.44;;;0.73;100.00
24558;BME280;12726;49.148;8.582;2023-02-15T02:17:07;101836.78;;;0.67;100.00
24558;BME280;12726;49.148;8.582;2023-02-15T02:20:16;101833.63;;;0.62;100.00
24558;BME280;12726;49.148;8.582;2023-02-15T02:23:23;101837.47;;;0.58;100.00
24558;BME280;12726;49.148;8.582;2023-02-15T02:36:13;101831.31;;;0.58;100.00
24558;BME280;12726;49.148;8.582;2023-02-15T02:39:09;101844.25;;;0.62;100.00
24558;BME280;12726;49.148;8.582;2023-02-15T02:42:01;101838.53;;;0.56;100.00
24558;BME280;12726;49.148;8.582;2023-02-15T02:44:51;101826.34;;;0.53;100.00
24558;BME280;12726;49.148;8.582;2023-02-15T02:47:43;101821.91;;;0.54;100.00
24558;BME280;12726;49.148;8.582;2023-02-15T02:50:31;101821.16;;;0.52;100.00
24558;BME280;12726;49.148;8.582;2023-02-15T02:53:16;101811.41;;;0.52;100.00
24558;BME280;12726;49.148;8.582;2023-02-15T02:56:05;101801.31;;;0.57;100.00
24558;BME280;12726;49.148;8.582;2023-02-15T02:58:54;101799.28;;;0.61;100.00
24558;BME280;12726;49.148;8.582;2023-02-15T03:01:44;101798.66;;;0.57;100.00
24558;BME280;12726;49.148;8.582;2023-02-15T03:04:34;101804.94;;;0.56;100.00
24558;BME280;12726;49.148;8.582;2023-02-15T03:07:22;101806.00;;;0.54;100.00
24558;BME280;12726;49.148;8.582;2023-02-15T03:10:10;101804.81;;;0.58;100.00
24558;BME280;12726;49.148;8.582;2023-02-15T03:12:55;101812.91;;;0.56;100.00
24558;BME280;12726;49.148;8.582;2023-02-15T03:15:41;101804.69;;;0.59;100.00
24558;BME280;12726;49.148;8.582;2023-02-15T03:18:48;101802.16;;;0.58;100.00
24558;BME280;12726;49.148;8.582;2023-02-15T03:21:44;101806.97;;;0.53;100.00
24558;BME280;12726;49.148;8.582;2023-02-15T03:24:44;101810.06;;;0.47;100.00
24558;BME280;12726;49.148;8.582;2023-02-15T03:27:35;101808.16;;;0.49;100.00
24558;BME280;12726;49.148;8.582;2023-02-15T03:30:24;101808.28;;;0.47;100.00
24558;BME280;12726;49.148;8.582;2023-02-15T03:33:11;101811.38;;;0.41;100.00
24558;BME280;12726;49.148;8.582;2023-02-15T03:36:02;101809.56;;;0.42;100.00
24558;BME280;12726;49.148;8.582;2023-02-15T03:38:53;101804.88;;;0.45;100.00
24558;BME280;12726;49.148;8.582;2023-02-15T03:41:50;101809.19;;;0.35;100.00
24558;BME280;12726;49.148;8.582;2023-02-15T03:44:46;101810.13;;;0.34;100.00
24558;BME280;12726;49.148;8.582;2023-02-15T03:47:37;101811.94;;;0.33;100.00
24558;BME280;12726;49.148;8.582;2023-02-15T03:50:26;101817.22;;;0.33;100.00
24558;BME280;12726;49.148;8.582;2023-02-15T03:53:30;101821.69;;;0.33;100.00
24558;BME280;12726;49.148;8.582;2023-02-15T03:56:16;101831.44;;;0.32;100.00
24558;BME280;12726;49.148;8.582;2023-02-15T03:59:03;101823.19;;;0.24;100.00
24558;BME280;12726;49.148;8.582;2023-02-15T04:02:14;101830.69;;;0.30;100.00
24558;BME280;12726;49.148;8.582;2023-02-15T04:05:06;101819.88;;;0.33;100.00
24558;BME280;12726;49.148;8.582;2023-02-15T04:07:51;101816.72;;;0.28;100.00
24558;BME280;12726;49.148;8.582;2023-02-15T04:10:36;101821.28;;;0.26;100.00
24558;BME280;12726;49.148;8.582;2023-02-15T04:13:36;101808.53;;;0.31;100.00
24558;BME280;12726;49.148;8.582;2023-02-15T04:16:23;101818.41;;;0.29;100.00
24558;BME280;12726;49.148;8.582;2023-02-15T04:19:07;101819.47;;;0.27;100.00
24558;BME280;12726;49.148;8.582;2023-02-15T04:22:10;101815.03;;;0.27;100.00
24558;BME280;12726;49.148;8.582;2023-02-15T04:25:13;101813.28;;;0.39;100.00
24558;BME280;12726;49.148;8.582;2023-02-15T04:27:58;101806.63;;;0.33;100.00
24558;BME280;12726;49.148;8.582;2023-02-15T04:30:44;101806.75;;;0.32;100.00
24558;BME280;12726;49.148;8.582;2023-02-15T04:33:30;101802.41;;;0.31;100.00
24558;BME280;12726;49.148;8.582;2023-02-15T04:36:16;101807.09;;;0.27;100.00
24558;BME280;12726;49.148;8.582;2023-02-15T04:39:01;101792.66;;;0.31;100.00
24558;BME280;12726;49.148;8.582;2023-02-15T04:41:47;101788.41;;;0.29;100.00
24558;BME280;12726;49.148;8.582;2023-02-15T04:44:32;101801.94;;;0.37;100.00
24558;BME280;12726;49.148;8.582;2023-02-15T04:47:18;101791.06;;;0.29;100.00
24558;BME280;12726;49.148;8.582;2023-02-15T04:50:06;101786.84;;;0.26;100.00
24558;BME280;12726;49.148;8.582;2023-02-15T04:52:51;101786.47;;;0.20;100.00
24558;BME280;12726;49.148;8.582;2023-02-15T04:55:37;101797.16;;;0.18;100.00
24558;BME280;12726;49.148;8.582;2023-02-15T04:58:22;101794.63;;;0.17;100.00
24558;BME280;12726;49.148;8.582;2023-02-15T05:01:07;101786.66;;;0.17;100.00
24558;BME280;12726;49.148;8.582;2023-02-15T05:03:53;101793.44;;;0.21;100.00
24558;BME280;12726;49.148;8.582;2023-02-15T05:06:40;101786.28;;;0.10;100.00
24558;BME280;12726;49.148;8.582;2023-02-15T05:09:25;101790.22;;;0.05;100.00
24558;BME280;12726;49.148;8.582;2023-02-15T05:12:10;101789.16;;;0.07;100.00
24558;BME280;12726;49.148;8.582;2023-02-15T05:14:56;101792.22;;;0.01;100.00
24558;BME280;12726;49.148;8.582;2023-02-15T05:17:41;101789.56;;;0.14;100.00
24558;BME280;12726;49.148;8.582;2023-02-15T05:20:27;101790.50;;;0.13;100.00
24558;BME280;12726;49.148;8.582;2023-02-15T05:23:13;101784.97;;;0.16;100.00
24558;BME280;12726;49.148;8.582;2023-02-15T05:25:59;101788.91;;;0.10;100.00
24558;BME280;12726;49.148;8.582;2023-02-15T05:29:02;101785.53;;;0.08;100.00
24558;BME280;12726;49.148;8.582;2023-02-15T05:31:48;101785.44;;;0.10;100.00
24558;BME280;12726;49.148;8.582;2023-02-15T05:34:33;101787.78;;;0.02;100.00
24558;BME280;12726;49.148;8.582;2023-02-15T05:37:19;101797.53;;;0.01;100.00
24558;BME280;12726;49.148;8.582;2023-02-15T05:40:07;101786.81;;;0.03;100.00
24558;BME280;12726;49.148;8.582;2023-02-15T05:42:52;101798.25;;;0.03;100.00
24558;BME280;12726;49.148;8.582;2023-02-15T05:45:38;101798.06;;;0.06;100.00
24558;BME280;12726;49.148;8.582;2023-02-15T05:48:26;101792.88;;;0.05;100.00
24558;BME280;12726;49.148;8.582;2023-02-15T05:51:13;101791.81;;;0.07;100.00
24558;BME280;12726;49.148;8.582;2023-02-15T05:53:59;101795.91;;;0.11;100.00
24558;BME280;12726;49.148;8.582;2023-02-15T05:56:46;101798.56;;;0.11;100.00
24558;BME280;12726;49.148;8.582;2023-02-15T05:59:32;101794.13;;;0.12;100.00
24558;BME280;12726;49.148;8.582;2023-02-15T06:02:17;101792.75;;;0.06;100.00
24558;BME280;12726;49.148;8.582;2023-02-15T06:05:03;101798.25;;;0.03;100.00
24558;BME280;12726;49.148;8.582;2023-02-15T06:07:49;101800.41;;;-0.02;100.00
24558;BME280;12726;49.148;8.582;2023-02-15T06:10:34;101813.75;;;-0.04;100.00
24558;BME280;12726;49.148;8.582;2023-02-15T06:13:21;101817.03;;;0.00;100.00
24558;BME280;12726;49.148;8.582;2023-02-15T06:16:06;101820.28;;;0.04;100.00
24558;BME280;12726;49.148;8.582;2023-02-15T06:18:51;101817.53;;;0.05;100.00
24558;BME280;12726;49.148;8.582;2023-02-15T06:21:37;101821.53;;;0.11;100.00
24558;BME280;12726;49.148;8.582;2023-02-15T06:24:22;101823.13;;;0.13;100.00
24558;BME280;12726;49.148;8.582;2023-02-15T06:27:08;101818.69;;;0.01;100.00
24558;BME280;12726;49.148;8.582;2023-02-15T06:29:54;101821.69;;;-0.04;100.00
24558;BME280;12726;49.148;8.582;2023-02-15T06:32:39;101821.03;;;-0.07;100.00
24558;BME280;12726;49.148;8.582;2023-02-15T06:35:25;101822.03;;;-0.08;100.00
24558;BME280;12726;49.148;8.582;2023-02-15T06:38:10;101831.44;;;-0.04;100.00
24558;BME280;12726;49.148;8.582;2023-02-15T06:40:56;101838.75;;;-0.08;100.00
24558;BME280;12726;49.148;8.582;2023-02-15T06:43:41;101849.63;;;0.00;100.00
24558;BME280;12726;49.148;8.582;2023-02-15T06:46:28;101839.38;;;-0.04;100.00
24558;BME280;12726;49.148;8.582;2023-02-15T06:49:13;101842.31;;;0.04;100.00
24558;BME280;12726;49.148;8.582;2023-02-15T06:51:58;101846.25;;;-0.02;100.00
24558;BME280;12726;49.148;8.582;2023-02-15T06:54:44;101840.56;;;-0.08;100.00
24558;BME280;12726;49.148;8.582;2023-02-15T06:57:29;101839.78;;;0.03;100.00
24558;BME280;12726;49.148;8.582;2023-02-15T07:00:22;101845.16;;;0.01;100.00
24558;BME280;12726;49.148;8.582;2023-02-15T07:03:13;101845.41;;;-0.02;100.00
24558;BME280;12726;49.148;8.582;2023-02-15T07:06:00;101834.63;;;-0.12;100.00
24558;BME280;12726;49.148;8.582;2023-02-15T07:08:45;101840.44;;;-0.19;100.00
24558;BME280;12726;49.148;8.582;2023-02-15T07:11:30;101849.47;;;-0.22;100.00
24558;BME280;12726;49.148;8.582;2023-02-15T07:14:33;101847.78;;;-0.23;100.00
24558;BME280;12726;49.148;8.582;2023-02-15T07:17:18;101850.28;;;-0.21;100.00
24558;BME280;12726;49.148;8.582;2023-02-15T07:20:07;101839.47;;;-0.06;100.00
24558;BME280;12726;49.148;8.582;2023-02-15T07:22:53;101845.50;;;-0.04;100.00
24558;BME280;12726;49.148;8.582;2023-02-15T07:25:38;101842.78;;;-0.15;100.00
24558;BME280;12726;49.148;8.582;2023-02-15T07:28:24;101844.59;;;-0.15;100.00
24558;BME280;12726;49.148;8.582;2023-02-15T07:31:09;101847.97;;;-0.26;100.00
24558;BME280;12726;49.148;8.582;2023-02-15T07:33:54;101855.28;;;-0.17;100.00
24558;BME280;12726;49.148;8.582;2023-02-15T07:36:41;101854.94;;;-0.12;100.00
24558;BME280;12726;49.148;8.582;2023-02-15T07:39:27;101843.84;;;-0.17;100.00
24558;BME280;12726;49.148;8.582;2023-02-15T07:42:13;101844.47;;;-0.14;100.00
24558;BME280;12726;49.148;8.582;2023-02-15T07:44:58;101852.59;;;-0.04;100.00
24558;BME280;12726;49.148;8.582;2023-02-15T07:47:44;101854.09;;;0.00;100.00
24558;BME280;12726;49.148;8.582;2023-02-15T07:50:29;101849.84;;;-0.03;100.00
24558;BME280;12726;49.148;8.582;2023-02-15T07:53:16;101847.09;;;-0.01;100.00
24558;BME280;12726;49.148;8.582;2023-02-15T07:56:03;101846.03;;;0.02;100.00
24558;BME280;12726;49.148;8.582;2023-02-15T07:58:49;101845.19;;;-0.12;100.00
24558;BME280;12726;49.148;8.582;2023-02-15T08:01:39;101841.41;;;-0.08;100.00
24558;BME280;12726;49.148;8.582;2023-02-15T08:04:24;101843.00;;;-0.18;100.00
24558;BME280;12726;49.148;8.582;2023-02-15T08:07:10;101838.84;;;-0.09;100.00
24558;BME280;12726;49.148;8.582;2023-02-15T08:09:56;101849.84;;;-0.03;100.00
24558;BME280;12726;49.148;8.582;2023-02-15T08:12:42;101841.28;;;-0.06;100.00
24558;BME280;12726;49.148;8.582;2023-02-15T08:15:28;101845.16;;;0.01;100.00
24558;BME280;12726;49.148;8.582;2023-02-15T08:18:13;101839.72;;;-0.09;100.00
24558;BME280;12726;49.148;8.582;2023-02-15T08:21:04;101834.84;;;-0.15;100.00
24558;BME280;12726;49.148;8.582;2023-02-15T08:23:49;101835.66;;;-0.14;100.00
24558;BME280;12726;49.148;8.582;2023-02-15T08:26:37;101828.06;;;-0.19;100.00
24558;BME280;12726;49.148;8.582;2023-02-15T08:29:25;101825.41;;;-0.19;100.00
24558;BME280;12726;49.148;8.582;2023-02-15T08:32:11;101825.53;;;-0.08;100.00
24558;BME280;12726;49.148;8.582;2023-02-15T08:34:57;101827.22;;;-0.19;100.00
24558;BME280;12726;49.148;8.582;2023-02-15T08:37:43;101824.53;;;-0.07;100.00
24558;BME280;12726;49.148;8.582;2023-02-15T08:40:29;101821.38;;;-0.12;100.00
24558;BME280;12726;49.148;8.582;2023-02-15T08:43:16;101821.59;;;-0.02;100.00
24558;BME280;12726;49.148;8.582;2023-02-15T08:46:01;101822.13;;;-0.10;100.00
24558;BME280;12726;49.148;8.582;2023-02-15T08:48:47;101821.19;;;-0.09;100.00
24558;BME280;12726;49.148;8.582;2023-02-15T08:51:33;101829.63;;;-0.04;100.00
24558;BME280;12726;49.148;8.582;2023-02-15T08:54:20;101821.06;;;-0.20;100.00
24558;BME280;12726;49.148;8.582;2023-02-15T08:57:05;101816.63;;;-0.19;100.00
24558;BME280;12726;49.148;8.582;2023-02-15T08:59:51;101826.38;;;-0.20;100.00
24558;BME280;12726;49.148;8.582;2023-02-15T09:02:38;101822.44;;;-0.14;100.00
24558;BME280;12726;49.148;8.582;2023-02-15T09:05:24;101820.84;;;-0.04;100.00
24558;BME280;12726;49.148;8.582;2023-02-15T09:08:09;101820.19;;;0.05;100.00
24558;BME280;12726;49.148;8.582;2023-02-15T09:11:04;101814.34;;;0.13;100.00
24558;BME280;12726;49.148;8.582;2023-02-15T09:13:52;101815.69;;;0.18;100.00
24558;BME280;12726;49.148;8.582;2023-02-15T09:16:40;101816.16;;;0.12;100.00
24558;BME280;12726;49.148;8.582;2023-02-15T09:19:26;101811.47;;;0.16;100.00
24558;BME280;12726;49.148;8.582;2023-02-15T09:22:11;101806.72;;;0.08;100.00
24558;BME280;12726;49.148;8.582;2023-02-15T09:24:57;101805.09;;;0.18;100.00
24558;BME280;12726;49.148;8.582;2023-02-15T09:27:42;101801.91;;;0.26;100.00
24558;BME280;12726;49.148;8.582;2023-02-15T09:30:27;101804.94;;;0.32;100.00
24558;BME280;12726;49.148;8.582;2023-02-15T09:33:14;101808.94;;;0.38;100.00
24558;BME280;12726;49.148;8.582;2023-02-15T09:35:59;101809.56;;;0.42;100.00
24558;BME280;12726;49.148;8.582;2023-02-15T09:38:45;101804.38;;;0.40;100.00
24558;BME280;12726;49.148;8.582;2023-02-15T09:41:41;101790.19;;;0.41;100.00
24558;BME280;12726;49.148;8.582;2023-02-15T09:44:40;101794.00;;;0.37;100.00
24558;BME280;12726;49.148;8.582;2023-02-15T09:47:47;101797.75;;;0.34;100.00
24558;BME280;12726;49.148;8.582;2023-02-15T09:50:44;101808.38;;;0.46;100.00
24558;BME280;12726;49.148;8.582;2023-02-15T09:53:49;101806.69;;;0.45;100.00
24558;BME280;12726;49.148;8.582;2023-02-15T09:56:49;101807.22;;;0.50;100.00
24558;BME280;12726;49.148;8.582;2023-02-15T09:59:41;101805.09;;;0.66;100.00
24558;BME280;12726;49.148;8.582;2023-02-15T10:02:40;101806.09;;;0.76;100.00
24558;BME280;12726;49.148;8.582;2023-02-15T10:05:37;101804.63;;;0.72;100.00
24558;BME280;12726;49.148;8.582;2023-02-15T10:08:40;101799.13;;;0.86;100.00
24558;BME280;12726;49.148;8.582;2023-02-15T10:11:41;101797.53;;;0.72;100.00
24558;BME280;12726;49.148;8.582;2023-02-15T10:14:40;101799.84;;;0.77;100.00
24558;BME280;12726;49.148;8.582;2023-02-15T10:17:42;101793.84;;;0.86;100.00
24558;BME280;12726;49.148;8.582;2023-02-15T10:20:36;101802.56;;;0.99;100.00
24558;BME280;12726;49.148;8.582;2023-02-15T10:23:36;101803.16;;;0.92;100.00
24558;BME280;12726;49.148;8.582;2023-02-15T10:26:28;101802.09;;;1.05;100.00
24558;BME280;12726;49.148;8.582;2023-02-15T10:29:28;101802.94;;;1.06;100.00
24558;BME280;12726;49.148;8.582;2023-02-15T10:32:22;101805.13;;;1.23;100.00
24558;BME280;12726;49.148;8.582;2023-02-15T10:35:15;101797.84;;;0.92;100.00
24558;BME280;12726;49.148;8.582;2023-02-15T10:38:14;101800.72;;;1.00;100.00
24558;BME280;12726;49.148;8.582;2023-02-15T10:41:14;101796.16;;;1.02;100.00
24558;BME280;12726;49.148;8.582;2023-02-15T10:44:13;101792.56;;;1.03;100.00
24558;BME280;12726;49.148;8.582;2023-02-15T10:47:18;101798.97;;;1.11;100.00
24558;BME280;12726;49.148;8.582;2023-02-15T10:50:17;101793.56;;;1.24;100.00
24558;BME280;12726;49.148;8.582;2023-02-15T10:53:15;101791.13;;;1.21;100.00
24558;BME280;12726;49.148;8.582;2023-02-15T10:56:12;101785.13;;;1.30;100.00
24558;BME280;12726;49.148;8.582;2023-02-15T10:59:15;101783.34;;;1.42;100.00
24558;BME280;12726;49.148;8.582;2023-02-15T11:02:11;101789.13;;;1.47;100.00
24558;BME280;12726;49.148;8.582;2023-02-15T11:05:17;101785.75;;;1.56;100.00
24558;BME280;12726;49.148;8.582;2023-02-15T11:08:09;101785.38;;;1.72;98.63
24558;BME280;12726;49.148;8.582;2023-02-15T11:10:58;101784.78;;;1.68;99.87
24558;BME280;12726;49.148;8.582;2023-02-15T11:14:02;101773.94;;;1.60;99.32
24558;BME280;12726;49.148;8.582;2023-02-15T11:16:52;101781.88;;;1.60;100.00
24558;BME280;12726;49.148;8.582;2023-02-15T11:19:42;101775.97;;;1.68;99.26
24558;BME280;12726;49.148;8.582;2023-02-15T11:22:32;101764.03;;;1.62;98.93
24558;BME280;12726;49.148;8.582;2023-02-15T11:25:20;101763.19;;;1.62;99.90
24558;BME280;12726;49.148;8.582;2023-02-15T11:28:13;101761.72;;;1.80;99.67
24558;BME280;12726;49.148;8.582;2023-02-15T11:31:17;101751.09;;;1.80;98.22
24558;BME280;12726;49.148;8.582;2023-02-15T11:34:10;101752.47;;;1.63;98.48
24558;BME280;12726;49.148;8.582;2023-02-15T11:37:01;101738.09;;;1.66;99.22
24558;BME280;12726;49.148;8.582;2023-02-15T11:39:50;101738.94;;;1.77;100.00
24558;BME280;12726;49.148;8.582;2023-02-15T11:42:39;101745.44;;;1.84;99.68
24558;BME280;12726;49.148;8.582;2023-02-15T11:45:27;101736.59;;;1.95;98.89
24558;BME280;12726;49.148;8.582;2023-02-15T11:48:15;101735.69;;;2.17;97.21
24558;BME280;12726;49.148;8.582;2023-02-15T11:51:02;101738.00;;;2.10;96.23
24558;BME280;12726;49.148;8.582;2023-02-15T11:53:48;101733.03;;;2.17;95.91
24558;BME280;12726;49.148;8.582;2023-02-15T11:56:34;101733.53;;;2.11;95.39
24558;BME280;12726;49.148;8.582;2023-02-15T11:59:28;101713.97;;;2.12;95.72
24558;BME280;12726;49.148;8.582;2023-02-15T12:02:16;101712.09;;;2.23;96.02
24558;BME280;12726;49.148;8.582;2023-02-15T12:05:09;101703.44;;;2.42;95.38
24558;BME280;12726;49.148;8.582;2023-02-15T12:07:58;101705.72;;;2.47;95.60
24558;BME280;12726;49.148;8.582;2023-02-15T12:10:57;101694.31;;;2.56;96.65
24558;BME280;12726;49.148;8.582;2023-02-15T12:14:04;101702.44;;;2.75;93.23
24558;BME280;12726;49.148;8.582;2023-02-15T12:16:51;101688.81;;;2.89;91.75
24558;BME280;12726;49.148;8.582;2023-02-15T12:19:39;101682.69;;;2.98;90.17
24558;BME280;12726;49.148;8.582;2023-02-15T12:22:29;101690.53;;;3.00;90.12
24558;BME280;12726;49.148;8.582;2023-02-15T12:25:21;101686.66;;;3.13;90.92
24558;BME280;12726;49.148;8.582;2023-02-15T12:28:23;101688.22;;;3.16;89.25
24558;BME280;12726;49.148;8.582;2023-02-15T12:31:19;101679.19;;;2.98;90.45
24558;BME280;12726;49.148;8.582;2023-02-15T12:34:10;101679.75;;;3.01;92.74
24558;BME280;12726;49.148;8.582;2023-02-15T12:36:59;101679.03;;;2.99;91.11
24558;BME280;12726;49.148;8.582;2023-02-15T12:39:53;101667.84;;;2.96;91.42
24558;BME280;12726;49.148;8.582;2023-02-15T12:42:44;101667.75;;;3.07;92.37
24558;BME280;12726;49.148;8.582;2023-02-15T12:45:31;101672.50;;;3.03;90.07
24558;BME280;12726;49.148;8.582;2023-02-15T12:48:19;101665.25;;;2.85;90.82
24558;BME280;12726;49.148;8.582;2023-02-15T12:51:07;101670.16;;;3.10;90.94
24558;BME280;12726;49.148;8.582;2023-02-15T12:53:53;101656.34;;;3.26;89.88
24558;BME280;12726;49.148;8.582;2023-02-15T12:56:40;101667.09;;;3.54;90.94
24558;BME280;12726;49.148;8.582;2023-02-15T12:59:25;101660.47;;;3.49;90.63
24558;BME280;12726;49.148;8.582;2023-02-15T13:02:18;101660.09;;;3.23;90.56
24558;BME280;12726;49.148;8.582;2023-02-15T13:05:14;101662.78;;;3.23;92.75
24558;BME280;12726;49.148;8.582;2023-02-15T13:08:11;101650.44;;;3.22;92.08
24558;BME280;12726;49.148;8.582;2023-02-15T13:11:00;101655.22;;;3.28;92.45
24558;BME280;12726;49.148;8.582;2023-02-15T13:13:52;101645.72;;;3.35;91.31
24558;BME280;12726;49.148;8.582;2023-02-15T13:16:39;101643.78;;;3.37;91.30
24558;BME280;12726;49.148;8.582;2023-02-15T13:19:31;101642.22;;;3.35;92.17
24558;BME280;12726;49.148;8.582;2023-02-15T13:22:20;101632.41;;;3.35;92.37
24558;BME280;12726;49.148;8.582;2023-02-15T13:25:11;101625.72;;;3.41;92.75
24558;BME280;12726;49.148;8.582;2023-02-15T13:28:01;101619.94;;;3.36;90.84
24558;BME280;12726;49.148;8.582;2023-02-15T13:30:49;101618.66;;;3.30;92.42
24558;BME280;12726;49.148;8.582;2023-02-15T13:33:36;101612.94;;;3.25;92.39
24558;BME280;12726;49.148;8.582;2023-02-15T13:36:26;101618.53;;;3.41;91.44
24558;BME280;12726;49.148;8.582;2023-02-15T13:39:22;101610.25;;;3.25;92.44
24558;BME280;12726;49.148;8.582;2023-02-15T13:42:19;101604.25;;;3.33;92.62
24558;BME280;12726;49.148;8.582;2023-02-15T13:45:27;101597.97;;;3.34;92.10
24558;BME280;12726;49.148;8.582;2023-02-15T13:48:21;101593.06;;;3.39;92.98
24558;BME280;12726;49.148;8.582;2023-02-15T13:51:14;101600.53;;;3.54;93.58
24558;BME280;12726;49.148;8.582;2023-02-15T13:54:27;101588.78;;;3.76;93.88
24558;BME280;12726;49.148;8.582;2023-02-15T13:57:33;101581.91;;;3.83;89.06
24558;BME280;12726;49.148;8.582;2023-02-15T14:00:26;101590.44;;;4.06;91.08
24558;BME280;12726;49.148;8.582;2023-02-15T14:03:40;101594.03;;;4.34;91.62
24558;BME280;12726;49.148;8.582;2023-02-15T14:06:45;101597.59;;;4.71;89.47
24558;BME280;12726;49.148;8.582;2023-02-15T14:09:43;101601.69;;;4.66;87.39
24558;BME280;12726;49.148;8.582;2023-02-15T14:12:46;101592.47;;;4.51;87.12
24558;BME280;12726;49.148;8.582;2023-02-15T14:15:40;101601.38;;;4.32;87.76
24558;BME280;12726;49.148;8.582;2023-02-15T14:18:36;101593.78;;;4.27;88.42
24558;BME280;12726;49.148;8.582;2023-02-15T14:21:25;101591.97;;;4.18;88.30
24558;BME280;12726;49.148;8.582;2023-02-15T14:24:23;101589.03;;;4.21;88.12
24558;BME280;12726;49.148;8.582;2023-02-15T14:27:20;101589.56;;;4.34;87.89
24558;BME280;12726;49.148;8.582;2023-02-15T14:30:14;101585.31;;;4.61;86.76
24558;BME280;12726;49.148;8.582;2023-02-15T14:33:05;101594.41;;;4.58;86.90
24558;BME280;12726;49.148;8.582;2023-02-15T14:35:53;101575.13;;;4.74;87.21
24558;BME280;12726;49.148;8.582;2023-02-15T14:38:48;101579.25;;;4.96;87.35
24558;BME280;12726;49.148;8.582;2023-02-15T14:41:39;101581.13;;;5.13;86.60
24558;BME280;12726;49.148;8.582;2023-02-15T14:44:31;101585.81;;;5.29;84.90
24558;BME280;12726;49.148;8.582;2023-02-15T14:47:26;101584.78;;;5.12;82.93
24558;BME280;12726;49.148;8.582;2023-02-15T14:50:41;101580.50;;;5.01;84.77
24558;BME280;12726;49.148;8.582;2023-02-15T14:53:38;101585.00;;;5.01;85.16
24558;BME280;12726;49.148;8.582;2023-02-15T14:56:26;101580.94;;;4.97;84.44
24558;BME280;12726;49.148;8.582;2023-02-15T14:59:16;101571.63;;;4.73;84.58